Time;durP1;ratioP1;P1;durP2;ratioP2;P2;SDS_P1;SDS_P2;PMS_P1;PMS_P2;Temp;Humidity;BMP_temperature;BMP_pressure;BME280_temperature;BME280_humidity;BME280_pressure;Samples;Min_cycle;Max_cycle;Signal;HPM_P1;HPM_P2
2022/11/17 00:01:50;;;;;;;18.02;8.23;;;;;;;9.17;100.00;93473.56;5056704;28;20207;-78
2022/11/17 00:04:17;;;;;;;19.50;9.88;;;;;;;9.27;100.00;93448.75;5055667;28;20199;-78
2022/11/17 00:06:44;;;;;;;22.17;9.48;;;;;;;8.96;100.00;93431.72;5057610;28;20198;-79
2022/11/17 00:09:16;;;;;;;16.58;8.13;;;;;;;9.06;100.00;93440.09;5056589;28;20670;-79
2022/11/17 00:14:36;;;;;;;17.98;9.10;;;;;;;8.99;100.00;93426.44;5053097;28;20198;-77
2022/11/17 00:17:07;;;;;;;21.67;9.57;;;;;;;9.14;100.00;93433.78;5057456;28;20207;-78
2022/11/17 00:22:18;;;;;;;19.45;8.77;;;;;;;9.04;100.00;93409.16;5065225;28;20201;-78
2022/11/17 00:24:45;;;;;;;13.50;7.00;;;;;;;9.06;100.00;93429.31;5069059;28;20302;-78
2022/11/17 00:27:17;;;;;;;19.27;9.35;;;;;;;9.09;100.00;93439.41;5053700;28;20211;-79
2022/11/17 00:29:44;;;;;;;13.70;8.15;;;;;;;9.08;100.00;93435.16;5059929;28;20202;-78
2022/11/17 00:34:58;;;;;;;18.33;7.97;;;;;;;8.96;100.00;93429.03;5063229;28;20529;-79
2022/11/17 00:37:25;;;;;;;12.20;7.38;;;;;;;8.93;100.00;93451.31;5056697;28;20195;-78
2022/11/17 00:39:52;;;;;;;22.98;10.27;;;;;;;8.86;100.00;93441.13;5069316;28;20203;-79
2022/11/17 00:42:19;;;;;;;15.02;8.25;;;;;;;8.76;100.00;93425.41;5056003;28;20901;-77
2022/11/17 00:44:46;;;;;;;16.58;9.38;;;;;;;8.84;100.00;93435.28;5057073;28;20200;-78
2022/11/17 00:47:14;;;;;;;18.52;8.30;;;;;;;8.91;100.00;93432.75;5056587;28;20215;-78
2022/11/17 00:49:41;;;;;;;16.63;9.30;;;;;;;8.98;100.00;93416.75;5056080;28;20208;-78
2022/11/17 00:52:07;;;;;;;22.88;10.25;;;;;;;8.90;100.00;93414.97;5061985;28;20675;-79
2022/11/17 00:54:34;;;;;;;19.45;9.25;;;;;;;8.86;100.00;93425.72;5063121;28;20249;-77
2022/11/17 00:57:01;;;;;;;22.58;9.95;;;;;;;8.97;100.00;93419.81;5049779;28;20257;-79
2022/11/17 00:59:28;;;;;;;20.95;8.65;;;;;;;8.89;100.00;93402.63;5063370;28;20331;-78
2022/11/17 01:01:55;;;;;;;17.10;8.75;;;;;;;8.92;100.00;93391.13;5056638;28;20203;-78
2022/11/17 01:04:23;;;;;;;18.45;9.18;;;;;;;8.98;100.00;93408.66;5055914;28;20253;-78
2022/11/17 01:06:50;;;;;;;15.82;9.50;;;;;;;8.92;100.00;93396.53;5069742;28;20743;-78
2022/11/17 01:09:18;;;;;;;17.85;9.50;;;;;;;8.87;100.00;93389.47;5056063;28;20744;-78
2022/11/17 01:11:46;;;;;;;20.45;9.45;;;;;;;8.96;100.00;93408.22;5061199;28;20272;-78
2022/11/17 01:14:15;;;;;;;18.60;8.48;;;;;;;8.83;100.00;93404.00;5063018;28;20284;-78
2022/11/17 01:16:42;;;;;;;21.05;9.63;;;;;;;8.97;100.00;93414.41;5058413;28;20199;-78
2022/11/17 01:19:11;;;;;;;20.60;9.73;;;;;;;8.82;100.00;93407.84;5056223;28;20265;-78
2022/11/17 01:21:39;;;;;;;20.00;9.35;;;;;;;8.75;100.00;93394.16;5060338;28;20203;-77
2022/11/17 01:24:06;;;;;;;20.42;9.02;;;;;;;8.85;100.00;93407.16;5063618;28;20247;-78
2022/11/17 01:26:35;;;;;;;18.00;9.18;;;;;;;8.80;100.00;93404.69;5051958;28;20208;-78
2022/11/17 01:29:03;;;;;;;18.73;9.35;;;;;;;8.82;100.00;93388.94;5065750;28;20542;-78
2022/11/17 01:31:31;;;;;;;16.90;8.35;;;;;;;8.76;100.00;93387.63;5062923;28;20280;-78
2022/11/17 01:33:58;;;;;;;22.27;9.18;;;;;;;8.75;100.00;93394.16;5055531;28;20572;-77
2022/11/17 01:36:27;;;;;;;17.20;8.23;;;;;;;8.84;100.00;93405.59;5063985;28;20295;-79
2022/11/17 01:38:56;;;;;;;12.40;7.45;;;;;;;8.98;100.00;93388.97;5055242;28;20253;-78
2022/11/17 01:41:24;;;;;;;16.35;8.75;;;;;;;9.01;100.00;93394.47;5063990;28;20237;-76
2022/11/17 01:43:53;;;;;;;21.98;9.00;;;;;;;8.97;100.00;93382.78;5066879;28;20231;-78
2022/11/17 01:46:28;;;;;;;21.27;9.30;;;;;;;8.84;100.00;93363.16;5065169;28;20202;-78
2022/11/17 01:48:59;;;;;;;14.00;7.88;;;;;;;8.90;100.00;93382.59;5053050;28;20666;-77
2022/11/17 01:51:27;;;;;;;14.85;8.15;;;;;;;8.92;100.00;93380.31;5052984;28;20308;-79
2022/11/17 01:53:56;;;;;;;16.52;8.77;;;;;;;8.69;100.00;93365.84;5053095;28;20563;-76
2022/11/17 01:56:27;;;;;;;19.38;9.77;;;;;;;8.88;100.00;93368.66;5055266;28;20215;-77
2022/11/17 01:59:04;;;;;;;19.65;9.57;;;;;;;8.79;100.00;93379.63;5063170;28;20261;-78
2022/11/17 02:01:32;;;;;;;18.38;9.85;;;;;;;8.71;100.00;93366.28;5066159;28;20195;-77
2022/11/17 02:03:59;;;;;;;21.73;9.10;;;;;;;8.70;100.00;93372.81;5064788;28;20252;-77
2022/11/17 02:06:31;;;;;;;17.15;8.55;;;;;;;8.71;100.00;93374.38;5059745;28;20203;-79
2022/11/17 02:09:02;;;;;;;16.25;8.68;;;;;;;8.81;100.00;93368.47;5060422;28;20200;-77
2022/11/17 02:11:34;;;;;;;15.40;9.50;;;;;;;8.75;100.00;93372.53;5052782;28;20191;-77
2022/11/17 02:14:03;;;;;;;14.68;7.38;;;;;;;8.65;100.00;93354.16;5052565;28;20231;-79
2022/11/17 02:16:30;;;;;;;19.60;7.68;;;;;;;8.78;100.00;93347.56;5064385;28;20199;-78
2022/11/17 02:18:57;;;;;;;14.15;7.63;;;;;;;8.83;100.00;93361.59;5065547;28;20206;-78
2022/11/17 02:22:00;;;;;;;15.48;7.88;;;;;;;8.90;100.00;93348.25;5060432;28;20199;-78
2022/11/17 02:24:47;;;;;;;12.85;6.10;;;;;;;8.80;100.00;93348.78;5049418;28;20257;-77
2022/11/17 02:27:31;;;;;;;16.45;7.88;;;;;;;8.61;100.00;93364.88;5068526;28;20264;-78
2022/11/17 02:30:03;;;;;;;14.98;8.77;;;;;;;8.65;100.00;93360.34;5059808;28;20245;-79
2022/11/17 02:32:36;;;;;;;18.30;7.20;;;;;;;8.72;100.00;93371.34;5064954;28;20235;-78
2022/11/17 02:35:13;;;;;;;16.75;8.63;;;;;;;8.72;100.00;93370.56;5065014;28;20261;-78
2022/11/17 02:37:50;;;;;;;16.75;6.60;;;;;;;8.76;100.00;93361.41;5051032;28;20644;-77
2022/11/17 02:40:24;;;;;;;15.45;7.95;;;;;;;8.80;100.00;93356.09;5065243;28;20191;-78
2022/11/17 02:45:48;;;;;;;16.13;7.30;;;;;;;8.69;100.00;93339.63;5051618;28;20195;-78
2022/11/17 02:48:21;;;;;;;15.93;6.82;;;;;;;8.77;100.00;93340.59;5051857;28;20249;-78
2022/11/17 02:50:49;;;;;;;14.98;7.75;;;;;;;8.88;100.00;93330.88;5051638;28;20199;-78
2022/11/17 02:53:17;;;;;;;13.68;7.95;;;;;;;8.98;100.00;93335.75;5051687;28;20274;-78
2022/11/17 02:55:49;;;;;;;19.88;7.65;;;;;;;8.96;100.00;93324.50;5062509;28;20325;-79
2022/11/17 02:58:18;;;;;;;18.30;7.15;;;;;;;9.04;100.00;93323.53;5053040;28;20196;-78
2022/11/17 03:00:57;;;;;;;12.00;6.88;;;;;;;9.12;100.00;93330.69;5051596;28;20203;-77
2022/11/17 03:03:35;;;;;;;15.20;7.05;;;;;;;9.13;100.00;93337.66;5051591;28;20659;-78
2022/11/17 03:06:15;;;;;;;12.65;7.35;;;;;;;9.18;100.00;93339.28;5051701;28;20196;-79
2022/11/17 03:08:50;;;;;;;14.65;6.93;;;;;;;9.07;100.00;93344.44;5051481;28;20651;-77
2022/11/17 03:11:22;;;;;;;13.15;6.70;;;;;;;9.08;100.00;93331.72;5051313;28;20191;-78
2022/11/17 03:14:02;;;;;;;14.60;7.20;;;;;;;9.03;100.00;93324.66;5050981;28;20678;-78
2022/11/17 03:16:33;;;;;;;8.95;5.63;;;;;;;9.03;100.00;93316.56;5050230;28;20487;-79
2022/11/17 03:19:09;;;;;;;11.60;6.78;;;;;;;9.08;100.00;93346.00;5064665;28;20739;-77
2022/11/17 03:21:40;;;;;;;14.93;7.80;;;;;;;9.05;100.00;93335.91;5060441;28;20186;-77
2022/11/17 03:24:14;;;;;;;8.50;5.25;;;;;;;9.12;100.00;93329.91;5070058;28;20187;-77
2022/11/17 03:26:44;;;;;;;13.07;6.50;;;;;;;9.17;100.00;93332.31;5060255;28;20241;-77
2022/11/17 03:29:16;;;;;;;11.75;6.38;;;;;;;9.26;100.00;93331.00;5055839;28;20244;-77
2022/11/17 03:31:47;;;;;;;10.90;5.93;;;;;;;9.33;100.00;93324.19;5058260;28;20305;-78
2022/11/17 03:34:22;;;;;;;8.65;5.72;;;;;;;9.19;100.00;93324.63;5064446;28;20235;-77
2022/11/17 03:36:53;;;;;;;15.75;6.80;;;;;;;9.18;100.00;93336.59;5064349;28;20203;-78
2022/11/17 03:39:24;;;;;;;14.02;7.35;;;;;;;9.22;100.00;93340.94;5051277;28;20662;-78
2022/11/17 03:41:55;;;;;;;12.70;5.50;;;;;;;9.35;100.00;93348.94;5064042;28;20202;-78
2022/11/17 03:44:26;;;;;;;10.07;5.82;;;;;;;9.27;100.00;93348.78;5060080;28;20195;-78
2022/11/17 03:46:55;;;;;;;10.50;5.22;;;;;;;9.20;100.00;93348.59;5066222;28;20602;-77
2022/11/17 03:49:32;;;;;;;15.50;5.70;;;;;;;9.24;100.00;93346.78;5050457;28;20200;-78
2022/11/17 03:52:00;;;;;;;12.77;5.43;;;;;;;9.38;100.00;93335.53;5056982;28;20674;-76
2022/11/17 03:54:27;;;;;;;10.32;5.05;;;;;;;9.29;100.00;93340.34;5057186;28;20629;-75
2022/11/17 03:56:58;;;;;;;14.25;6.13;;;;;;;9.25;100.00;93332.16;5063361;28;20281;-75
2022/11/17 03:59:31;;;;;;;11.75;6.00;;;;;;;9.27;100.00;93343.38;5064058;28;20245;-75
2022/11/17 04:01:57;;;;;;;11.32;6.22;;;;;;;9.30;100.00;93327.59;5057916;28;20203;-75
2022/11/17 04:05:04;;;;;;;10.40;5.57;;;;;;;9.26;100.00;93331.00;5056942;28;20203;-75
2022/11/17 04:07:11;;;;;;;12.48;6.53;;;;;;;9.22;100.00;93330.13;5069512;28;20230;-75
2022/11/17 04:09:38;;;;;;;12.75;6.43;;;;;;;9.27;100.00;93326.41;5056490;28;20206;-75
2022/11/17 04:17:34;;;;;;;13.35;6.68;;;;;;;9.26;100.00;93319.41;5055875;28;20232;-76
2022/11/17 04:20:01;;;;;;;13.30;7.15;;;;;;;9.26;100.00;93303.22;5060399;28;20527;-76
2022/11/17 04:22:28;;;;;;;9.77;6.18;;;;;;;9.21;100.00;93304.25;5065379;28;20199;-76
2022/11/17 04:24:55;;;;;;;11.68;6.63;;;;;;;9.33;100.00;93318.78;5060736;28;20199;-76
2022/11/17 04:30:08;;;;;;;21.02;8.52;;;;;;;9.35;100.00;93311.13;5066637;28;20205;-76
2022/11/17 04:32:35;;;;;;;11.80;6.03;;;;;;;9.39;100.00;93312.00;5049139;28;20243;-76
2022/11/17 04:35:02;;;;;;;14.55;7.18;;;;;;;9.42;100.00;93316.69;5062348;28;20249;-76
2022/11/17 04:37:28;;;;;;;9.15;5.43;;;;;;;9.51;100.00;93292.94;5056270;28;20607;-76
2022/11/17 04:39:55;;;;;;;14.88;6.72;;;;;;;9.36;100.00;93294.56;5056862;28;20281;-76
2022/11/17 04:42:21;;;;;;;14.20;6.65;;;;;;;9.35;100.00;93303.00;5063046;28;20212;-76
2022/11/17 04:44:48;;;;;;;11.80;6.20;;;;;;;9.31;100.00;93283.22;5062415;28;20280;-76
2022/11/17 04:47:16;;;;;;;12.75;6.30;;;;;;;9.16;100.00;93299.09;5056136;28;20207;-76
2022/11/17 04:49:42;;;;;;;10.70;5.45;;;;;;;9.31;100.00;93299.44;5056201;28;20250;-76
2022/11/17 04:52:09;;;;;;;10.48;6.00;;;;;;;9.15;100.00;93292.16;5062060;28;20203;-76
2022/11/17 04:54:36;;;;;;;15.55;6.55;;;;;;;9.08;100.00;93278.47;5062948;28;20230;-76
2022/11/17 04:57:03;;;;;;;15.52;7.15;;;;;;;9.23;100.00;93285.78;5056713;28;20249;-75
2022/11/17 04:59:29;;;;;;;15.73;8.53;;;;;;;9.22;100.00;93281.50;5054502;28;20436;-74
2022/11/17 05:01:56;;;;;;;12.38;6.68;;;;;;;9.23;100.00;93271.47;5061200;28;20447;-75
2022/11/17 05:07:09;;;;;;;14.30;6.30;;;;;;;9.17;100.00;93292.56;5058358;28;20223;-75
2022/11/17 05:09:36;;;;;;;16.30;7.60;;;;;;;9.10;100.00;93268.13;5061666;28;20207;-76
2022/11/17 05:14:49;;;;;;;10.27;6.05;;;;;;;9.05;100.00;93271.06;5048764;28;20305;-76
2022/11/17 05:17:15;;;;;;;11.73;6.95;;;;;;;9.04;100.00;93264.09;5049277;28;20566;-74
2022/11/17 05:19:44;;;;;;;14.75;7.13;;;;;;;8.98;100.00;93270.94;5049205;28;20200;-76
2022/11/17 05:24:52;;;;;;;12.63;6.40;;;;;;;9.15;100.00;93264.38;5016435;28;20219;-74
2022/11/17 05:27:20;;;;;;;17.08;6.47;;;;;;;9.08;100.00;93256.88;5048532;28;20199;-75
2022/11/17 05:29:46;;;;;;;14.50;6.78;;;;;;;9.01;100.00;93253.25;5046732;28;20206;-75
2022/11/17 05:32:13;;;;;;;14.13;6.78;;;;;;;9.05;100.00;93249.47;5047926;28;20293;-76
2022/11/17 05:34:40;;;;;;;18.48;6.72;;;;;;;9.02;100.00;93225.84;5047676;28;20231;-76
2022/11/17 05:37:08;;;;;;;10.98;6.07;;;;;;;8.96;100.00;93229.97;5048823;28;20199;-75
2022/11/17 05:39:35;;;;;;;13.77;6.57;;;;;;;8.99;100.00;93256.28;5049130;28;20234;-75
2022/11/17 05:42:02;;;;;;;16.05;7.82;;;;;;;9.04;100.00;93245.19;5052515;28;20203;-75
2022/11/17 05:44:28;;;;;;;11.68;6.40;;;;;;;9.06;100.00;93264.53;5058748;28;20203;-75
2022/11/17 05:46:55;;;;;;;14.95;7.18;;;;;;;9.05;100.00;93281.09;5062670;28;20639;-74
2022/11/17 05:49:24;;;;;;;16.27;6.97;;;;;;;9.04;100.00;93283.00;5060353;28;20256;-75
2022/11/17 05:51:51;;;;;;;16.55;8.68;;;;;;;9.02;100.00;93260.97;5049696;28;20667;-74
2022/11/17 05:54:19;;;;;;;14.32;7.07;;;;;;;8.96;100.00;93251.59;5060795;28;20243;-75
2022/11/17 05:56:49;;;;;;;13.43;6.20;;;;;;;9.08;100.00;93278.47;5068456;28;20211;-75
2022/11/17 05:59:23;;;;;;;13.13;5.78;;;;;;;9.01;100.00;93277.53;5055573;28;20203;-75
2022/11/17 06:01:59;;;;;;;17.10;6.40;;;;;;;9.06;100.00;93271.84;5048799;28;20530;-75
2022/11/17 06:04:25;;;;;;;9.55;6.63;;;;;;;8.96;100.00;93284.00;5062223;28;20289;-74
2022/11/17 06:06:57;;;;;;;15.40;6.75;;;;;;;9.03;100.00;93265.22;5057292;28;20206;-74
2022/11/17 06:09:27;;;;;;;16.10;7.55;;;;;;;9.04;100.00;93253.28;5055721;28;20567;-75
2022/11/17 06:11:53;;;;;;;7.28;4.97;;;;;;;8.97;100.00;93274.75;5062865;28;20290;-75
2022/11/17 06:14:20;;;;;;;11.70;7.13;;;;;;;9.04;100.00;93280.31;5059929;28;20314;-75
2022/11/17 06:16:51;;;;;;;9.90;5.88;;;;;;;9.03;100.00;93284.13;5061623;28;20208;-76
2022/11/17 06:19:22;;;;;;;13.88;7.55;;;;;;;9.04;100.00;93285.72;5062125;28;20282;-75
2022/11/17 06:21:49;;;;;;;10.18;6.40;;;;;;;9.02;100.00;93287.97;5061688;28;20183;-75
2022/11/17 06:24:16;;;;;;;14.70;6.53;;;;;;;8.96;100.00;93297.50;5060863;28;20198;-75
2022/11/17 06:26:46;;;;;;;10.48;7.00;;;;;;;9.06;100.00;93323.97;5058304;28;20320;-76
2022/11/17 06:29:14;;;;;;;12.18;6.72;;;;;;;9.08;100.00;93316.28;5060062;28;20200;-75
2022/11/17 06:31:42;;;;;;;15.82;5.97;;;;;;;8.99;100.00;93337.31;5060542;28;20192;-76
2022/11/17 06:34:09;;;;;;;17.35;8.57;;;;;;;9.04;100.00;93360.53;5058838;28;20219;-75
2022/11/17 06:36:36;;;;;;;12.52;6.32;;;;;;;9.09;100.00;93350.28;5058293;28;20187;-75
2022/11/17 06:39:03;;;;;;;14.82;7.47;;;;;;;9.14;100.00;93376.25;5059618;28;20199;-75
2022/11/17 06:41:29;;;;;;;11.73;5.15;;;;;;;9.09;100.00;93380.00;5070754;28;20278;-75
2022/11/17 06:43:58;;;;;;;4.85;3.47;;;;;;;9.08;100.00;93393.84;5070795;28;20256;-75
2022/11/17 06:46:36;;;;;;;13.15;7.10;;;;;;;9.10;100.00;93400.47;5071247;28;20207;-75
2022/11/17 06:49:04;;;;;;;18.98;7.70;;;;;;;9.20;100.00;93401.84;5062256;28;20200;-75
2022/11/17 06:51:30;;;;;;;14.02;8.18;;;;;;;9.27;100.00;93412.84;5050881;28;20204;-75
2022/11/17 06:53:57;;;;;;;13.60;7.18;;;;;;;9.36;100.00;93421.56;5050895;28;20269;-75
2022/11/17 06:56:24;;;;;;;16.42;8.05;;;;;;;9.30;100.00;93432.97;5051078;28;20716;-75
2022/11/17 06:58:51;;;;;;;16.83;6.97;;;;;;;9.26;100.00;93495.84;5051290;28;20211;-76
2022/11/17 07:01:19;;;;;;;11.88;6.72;;;;;;;9.36;100.00;93502.63;5051088;28;20208;-76
2022/11/17 07:03:46;;;;;;;11.48;6.60;;;;;;;9.42;100.00;93486.97;5050613;28;20666;-76
2022/11/17 07:06:14;;;;;;;20.00;7.60;;;;;;;9.47;100.00;93476.66;5050577;28;20249;-75
2022/11/17 07:08:41;;;;;;;9.75;5.38;;;;;;;9.49;100.00;93462.78;5050632;28;20294;-76
2022/11/17 07:11:10;;;;;;;4.75;3.75;;;;;;;9.54;100.00;93451.72;5051026;28;20261;-77
2022/11/17 07:13:38;;;;;;;5.75;3.67;;;;;;;9.67;100.00;93441.59;5050470;28;20219;-75
2022/11/17 07:16:08;;;;;;;7.80;3.60;;;;;;;9.80;100.00;93430.34;5051116;28;20232;-77
2022/11/17 07:18:36;;;;;;;1.58;1.10;;;;;;;10.03;100.00;93414.22;5050789;28;20233;-75
2022/11/17 07:21:04;;;;;;;1.58;0.80;;;;;;;10.31;100.00;93397.81;5064226;28;20207;-76
2022/11/17 07:23:31;;;;;;;2.40;1.08;;;;;;;10.39;99.91;93385.25;5050297;28;20203;-76
2022/11/17 07:25:58;;;;;;;2.40;0.93;;;;;;;10.44;97.59;93372.19;5051447;28;20261;-76
2022/11/17 07:28:25;;;;;;;0.85;0.70;;;;;;;10.49;95.68;93346.75;5062977;28;20199;-75
2022/11/17 07:30:55;;;;;;;2.85;1.13;;;;;;;10.66;94.88;93324.63;5057443;28;20206;-75
2022/11/17 07:33:22;;;;;;;0.73;0.73;;;;;;;10.64;95.23;93319.59;5057982;28;20270;-77
2022/11/17 07:35:50;;;;;;;0.60;0.60;;;;;;;10.71;94.70;93282.94;5050501;28;20239;-77
2022/11/17 07:38:17;;;;;;;0.50;0.40;;;;;;;10.71;93.00;93228.78;5062729;28;20731;-76
2022/11/17 07:40:47;;;;;;;0.57;0.57;;;;;;;10.98;90.71;93252.03;5051114;28;20678;-76
2022/11/17 07:43:13;;;;;;;0.95;0.43;;;;;;;11.25;88.20;93264.44;5049943;28;20207;-74
2022/11/17 07:45:45;;;;;;;0.40;0.40;;;;;;;11.23;88.45;93274.88;5050307;28;20199;-76
2022/11/17 07:48:14;;;;;;;0.63;0.63;;;;;;;11.50;86.11;93281.06;5052073;28;20639;-76
2022/11/17 07:50:41;;;;;;;1.15;0.65;;;;;;;11.50;87.29;93270.22;5061073;28;20215;-76
2022/11/17 07:53:14;;;;;;;0.60;0.60;;;;;;;11.54;88.28;93254.78;5052422;28;20207;-76
2022/11/17 07:55:46;;;;;;;0.50;0.50;;;;;;;11.57;89.13;93245.94;5060178;28;20219;-75
2022/11/17 07:58:12;;;;;;;0.75;0.52;;;;;;;11.78;85.56;93269.84;5050163;28;20306;-76
2022/11/17 08:00:39;;;;;;;0.80;0.80;;;;;;;11.67;89.86;93285.19;5050423;28;20204;-76
2022/11/17 08:03:06;;;;;;;1.27;0.90;;;;;;;11.64;89.40;93292.13;5050099;28;20269;-76
2022/11/17 08:05:38;;;;;;;1.85;0.90;;;;;;;11.82;90.74;93300.53;5050290;28;20203;-76
2022/11/17 08:08:07;;;;;;;1.25;0.93;;;;;;;11.95;91.09;93299.16;5050144;28;20230;-76
2022/11/17 08:10:35;;;;;;;4.47;2.08;;;;;;;11.96;93.29;93308.88;5049469;28;20663;-76
2022/11/17 08:13:01;;;;;;;2.65;1.83;;;;;;;11.88;92.86;93318.06;5050200;28;20216;-77
2022/11/17 08:15:29;;;;;;;7.18;1.98;;;;;;;11.82;92.28;93335.81;5063273;28;20279;-77
2022/11/17 08:17:58;;;;;;;5.30;2.03;;;;;;;11.84;94.54;93344.38;5049788;28;20756;-75
2022/11/17 08:20:29;;;;;;;2.00;1.10;;;;;;;12.20;87.12;93336.69;5049980;28;20203;-76
2022/11/17 08:22:56;;;;;;;2.17;1.33;;;;;;;12.32;87.60;93341.88;5050187;28;20188;-76
2022/11/17 08:25:25;;;;;;;0.98;0.68;;;;;;;12.57;82.51;93347.59;5062593;28;20763;-75
2022/11/17 08:27:56;;;;;;;0.98;0.80;;;;;;;12.63;82.94;93352.31;5050062;28;20553;-74
2022/11/17 08:30:24;;;;;;;2.72;1.25;;;;;;;12.66;80.33;93367.88;5051647;28;20222;-76
2022/11/17 08:32:53;;;;;;;4.65;2.55;;;;;;;12.55;82.48;93363.50;5060257;28;20239;-76
2022/11/17 08:35:22;;;;;;;1.17;0.90;;;;;;;12.54;80.56;93376.28;5048727;28;20239;-76
2022/11/17 08:37:49;;;;;;;4.00;1.67;;;;;;;12.52;82.72;93373.16;5049764;28;20211;-75
2022/11/17 08:40:17;;;;;;;3.13;2.50;;;;;;;12.45;84.08;93373.06;5048933;28;20729;-76
2022/11/17 08:42:44;;;;;;;5.45;2.58;;;;;;;12.38;85.53;93373.00;5049533;28;20310;-75
2022/11/17 08:45:15;;;;;;;7.15;3.65;;;;;;;12.18;88.25;93374.25;5049736;28;20208;-76
2022/11/17 08:47:42;;;;;;;6.10;2.55;;;;;;;12.16;89.16;93384.72;5049427;28;20655;-75
2022/11/17 08:50:09;;;;;;;5.00;3.05;;;;;;;12.37;89.23;93391.22;5048944;28;20215;-75
2022/11/17 08:52:36;;;;;;;5.10;2.80;;;;;;;12.67;89.38;93396.63;5049594;28;20261;-77
2022/11/17 08:55:04;;;;;;;8.48;5.03;;;;;;;12.88;89.56;93406.16;5048326;28;20629;-76
2022/11/17 08:57:31;;;;;;;7.63;3.45;;;;;;;12.99;88.12;93390.75;5048685;28;20330;-76
2022/11/17 08:59:58;;;;;;;10.18;5.72;;;;;;;13.07;88.80;93389.66;5049604;28;20269;-77
2022/11/17 09:02:26;;;;;;;6.88;3.42;;;;;;;12.96;85.42;93375.19;5049362;28;20207;-77
2022/11/17 09:04:53;;;;;;;4.10;2.78;;;;;;;12.69;86.17;93380.75;5048451;28;20200;-78
2022/11/17 09:07:20;;;;;;;8.35;2.90;;;;;;;12.61;87.49;93370.94;5049322;28;20204;-78
2022/11/17 09:09:47;;;;;;;9.02;4.18;;;;;;;12.55;87.02;93372.44;5049577;28;20219;-77
2022/11/17 09:12:14;;;;;;;1.42;0.95;;;;;;;12.20;89.86;93382.81;5048471;28;20290;-76
2022/11/17 09:14:41;;;;;;;3.97;2.60;;;;;;;12.06;90.45;93386.13;5048492;28;20277;-76
2022/11/17 09:17:08;;;;;;;4.72;2.90;;;;;;;12.09;89.22;93371.84;5061528;28;20623;-76
2022/11/17 09:19:36;;;;;;;4.53;2.70;;;;;;;12.19;88.60;93375.84;5050182;28;20211;-77
2022/11/17 09:22:02;;;;;;;5.00;3.03;;;;;;;12.00;89.74;93363.97;5048912;28;20667;-77
2022/11/17 09:24:29;;;;;;;6.00;2.28;;;;;;;11.94;90.92;93368.16;5048682;28;20208;-77
2022/11/17 09:26:57;;;;;;;7.88;3.88;;;;;;;12.08;93.09;93371.06;5053524;28;20229;-77
2022/11/17 09:29:24;;;;;;;8.30;4.28;;;;;;;12.09;93.34;93367.19;5048514;28;20293;-78
2022/11/17 09:31:50;;;;;;;5.32;2.97;;;;;;;12.12;93.34;93371.09;5061489;28;20238;-76
2022/11/17 09:34:17;;;;;;;6.00;3.47;;;;;;;11.87;94.55;93370.00;5068812;28;20210;-78
2022/11/17 09:36:47;;;;;;;11.20;5.93;;;;;;;11.93;94.41;93385.56;5069256;28;20581;-77
2022/11/17 09:39:14;;;;;;;7.25;4.25;;;;;;;12.00;95.68;93385.69;5069207;28;20203;-78
2022/11/17 09:41:43;;;;;;;9.18;4.13;;;;;;;12.14;94.76;93379.66;5068421;28;20210;-78
2022/11/17 09:44:24;;;;;;;4.38;3.08;;;;;;;12.16;94.33;93371.16;5068461;28;20286;-77
2022/11/17 09:47:07;;;;;;;6.35;3.88;;;;;;;12.17;94.19;93372.69;5071174;28;20207;-75
2022/11/17 09:49:42;;;;;;;8.40;4.13;;;;;;;12.14;94.21;93379.66;5059763;28;20241;-79
2022/11/17 09:52:18;;;;;;;7.70;2.38;;;;;;;12.02;93.41;93374.47;5052625;28;20361;-77
2022/11/17 09:54:52;;;;;;;7.53;4.57;;;;;;;12.01;94.67;93376.41;5051661;28;20751;-78
2022/11/17 09:57:24;;;;;;;8.20;4.05;;;;;;;12.26;94.46;93373.22;5052196;28;20234;-77
2022/11/17 10:00:01;;;;;;;9.82;6.50;;;;;;;12.26;92.95;93381.38;5051978;28;20202;-77
2022/11/17 10:02:27;;;;;;;7.60;3.47;;;;;;;12.48;93.18;93372.31;5052600;28;20206;-77
2022/11/17 10:04:55;;;;;;;7.15;3.30;;;;;;;12.54;90.14;93373.56;5057917;28;20207;-77
2022/11/17 10:07:23;;;;;;;7.18;4.43;;;;;;;12.59;90.69;93362.38;5059647;28;20303;-78
2022/11/17 10:09:52;;;;;;;5.80;3.45;;;;;;;12.71;91.68;93364.81;5052285;28;20211;-76
2022/11/17 10:12:21;;;;;;;7.72;3.53;;;;;;;12.57;89.83;93366.63;5052647;28;20219;-77
2022/11/17 10:14:49;;;;;;;6.10;3.45;;;;;;;12.57;90.45;93367.41;5058895;28;20206;-77
2022/11/17 10:17:18;;;;;;;6.13;3.67;;;;;;;12.90;91.26;93376.69;5072107;28;20207;-76
2022/11/17 10:19:45;;;;;;;8.50;3.40;;;;;;;13.19;90.06;93367.69;5072143;28;20215;-77
2022/11/17 10:22:25;;;;;;;6.55;3.67;;;;;;;13.18;89.15;93373.50;5070783;28;20677;-77
2022/11/17 10:24:56;;;;;;;8.80;3.72;;;;;;;13.13;88.52;93366.41;5052495;28;20195;-77
2022/11/17 10:27:25;;;;;;;4.90;3.13;;;;;;;12.99;87.77;93363.56;5051909;28;20210;-77
2022/11/17 10:30:00;;;;;;;11.77;4.35;;;;;;;12.99;89.09;93358.13;5051772;28;20215;-77
2022/11/17 10:32:27;;;;;;;11.25;6.65;;;;;;;13.16;88.19;93358.31;5051836;28;20293;-78
2022/11/17 10:34:54;;;;;;;7.70;4.00;;;;;;;13.07;88.39;93359.78;5052123;28;20203;-77
2022/11/17 10:37:28;;;;;;;6.82;4.03;;;;;;;12.85;86.91;93352.56;5056968;28;20214;-78
2022/11/17 10:40:18;;;;;;;5.50;3.53;;;;;;;13.12;89.23;93340.38;5059256;28;20593;-77
2022/11/17 10:42:56;;;;;;;8.15;3.72;;;;;;;13.43;88.17;93344.56;5052180;28;20210;-75
2022/11/17 10:45:23;;;;;;;5.90;3.13;;;;;;;13.59;84.83;93344.31;5051755;28;20204;-77
2022/11/17 10:47:50;;;;;;;8.02;3.72;;;;;;;14.10;82.77;93339.56;5051407;28;20679;-77
2022/11/17 10:50:23;;;;;;;2.88;1.52;;;;;;;14.67;77.97;93334.41;5057313;28;20203;-77
2022/11/17 10:52:51;;;;;;;1.60;1.30;;;;;;;15.10;74.76;93339.94;5071890;28;20264;-77
2022/11/17 10:55:26;;;;;;;4.43;1.77;;;;;;;15.35;74.03;93340.75;5071508;28;20647;-76
2022/11/17 10:57:58;;;;;;;3.00;1.35;;;;;;;15.18;72.11;93336.06;5069853;28;20195;-76
2022/11/17 11:00:29;;;;;;;2.22;1.30;;;;;;;15.58;72.83;93338.44;5062236;28;20195;-78
2022/11/17 11:03:16;;;;;;;1.55;1.20;;;;;;;15.72;71.39;93347.78;5054109;28;20237;-76
2022/11/17 11:05:57;;;;;;;0.75;0.50;;;;;;;15.89;69.57;93341.53;5059100;28;20317;-76
2022/11/17 11:08:27;;;;;;;0.82;0.50;;;;;;;15.85;69.44;93344.28;5051461;28;20330;-74
2022/11/17 11:10:58;;;;;;;0.57;0.55;;;;;;;15.71;68.41;93341.59;5050933;28;20207;-75
2022/11/17 11:13:36;;;;;;;0.60;0.50;;;;;;;15.69;70.04;93348.59;5051120;28;20573;-75
2022/11/17 11:16:03;;;;;;;0.75;0.60;;;;;;;15.41;70.20;93346.63;5054487;28;20223;-75
2022/11/17 11:18:32;;;;;;;1.00;0.70;;;;;;;15.40;71.25;93348.56;5060050;28;20265;-75
2022/11/17 11:21:08;;;;;;;1.60;0.73;;;;;;;15.51;71.18;93343.88;5051018;28;20212;-76
2022/11/17 11:23:45;;;;;;;1.15;0.77;;;;;;;15.55;71.03;93339.25;5051939;28;20253;-75
2022/11/17 11:26:41;;;;;;;0.68;0.60;;;;;;;15.67;70.90;93342.75;5050857;28;20206;-75
2022/11/17 11:29:20;;;;;;;2.30;0.85;;;;;;;16.15;69.38;93337.59;5050573;28;20202;-76
2022/11/17 11:31:57;;;;;;;7.05;3.45;;;;;;;16.51;71.63;93349.22;5050540;28;20726;-76
2022/11/17 11:34:41;;;;;;;5.50;3.90;;;;;;;16.11;69.74;93343.09;5051124;28;20223;-75
2022/11/17 11:37:10;;;;;;;7.97;3.45;;;;;;;16.09;72.36;93348.16;5050915;28;20223;-76
2022/11/17 11:39:47;;;;;;;5.60;4.07;;;;;;;16.08;72.72;93352.06;5050660;28;20274;-75
2022/11/17 11:42:36;;;;;;;7.00;4.30;;;;;;;16.13;75.00;93350.84;5050577;28;20281;-76
2022/11/17 11:45:26;;;;;;;9.38;5.00;;;;;;;16.33;74.50;93350.03;5055469;28;20203;-76
2022/11/17 11:48:20;;;;;;;5.38;3.40;;;;;;;16.35;73.37;93342.25;5049336;28;20200;-76
2022/11/17 11:50:55;;;;;;;4.70;2.42;;;;;;;16.57;72.22;93336.69;5054893;28;20562;-76
2022/11/17 11:53:28;;;;;;;3.88;2.75;;;;;;;16.85;70.98;93336.59;5049662;28;20202;-76
2022/11/17 11:56:08;;;;;;;5.32;2.83;;;;;;;16.59;69.91;93339.81;5060690;28;20264;-77
2022/11/17 11:58:41;;;;;;;5.30;2.28;;;;;;;16.30;70.25;93352.78;5048027;28;20279;-77
2022/11/17 12:01:10;;;;;;;5.28;2.90;;;;;;;16.02;70.62;93342.69;5056816;28;20203;-77
2022/11/17 12:03:48;;;;;;;4.47;2.65;;;;;;;16.40;70.97;93343.00;5054839;28;20589;-75
2022/11/17 12:06:40;;;;;;;2.08;1.80;;;;;;;16.72;71.10;93354.63;5049617;28;20607;-74
2022/11/17 12:09:24;;;;;;;2.30;1.50;;;;;;;17.03;67.67;93348.22;5053179;28;20269;-74
2022/11/17 12:12:01;;;;;;;0.98;0.57;;;;;;;16.67;66.82;93353.06;5048980;28;20207;-75